sensor_id;sensor_type;location;lat;lon;timestamp;P1;durP1;ratioP1;P2;durP2;ratioP2
10166;SDS011;62970;53.130;8.244;2023-02-28T00:00:12;5.97;;;4.90;;
10166;SDS011;62970;53.130;8.244;2023-02-28T00:02:43;6.27;;;4.60;;
10166;SDS011;62970;53.130;8.244;2023-02-28T00:05:14;5.70;;;4.70;;
10166;SDS011;62970;53.130;8.244;2023-02-28T00:07:46;6.60;;;4.60;;
10166;SDS011;62970;53.130;8.244;2023-02-28T00:12:54;5.07;;;4.57;;
10166;SDS011;62970;53.130;8.244;2023-02-28T00:15:26;5.10;;;4.57;;
10166;SDS011;62970;53.130;8.244;2023-02-28T00:17:56;5.40;;;4.80;;
10166;SDS011;62970;53.130;8.244;2023-02-28T00:20:25;5.70;;;4.53;;
10166;SDS011;62970;53.130;8.244;2023-02-28T00:22:55;6.27;;;4.70;;
10166;SDS011;62970;53.130;8.244;2023-02-28T00:25:27;5.83;;;4.43;;
10166;SDS011;62970;53.130;8.244;2023-02-28T00:27:57;5.47;;;4.40;;
10166;SDS011;62970;53.130;8.244;2023-02-28T00:30:26;4.67;;;4.13;;
10166;SDS011;62970;53.130;8.244;2023-02-28T00:32:55;6.30;;;4.13;;
10166;SDS011;62970;53.130;8.244;2023-02-28T00:35:25;5.37;;;4.40;;
10166;SDS011;62970;53.130;8.244;2023-02-28T00:37:54;4.87;;;4.13;;
10166;SDS011;62970;53.130;8.244;2023-02-28T00:40:24;5.17;;;3.90;;
10166;SDS011;62970;53.130;8.244;2023-02-28T00:42:56;4.43;;;3.80;;
10166;SDS011;62970;53.130;8.244;2023-02-28T00:45:26;6.53;;;4.63;;
10166;SDS011;62970;53.130;8.244;2023-02-28T00:47:55;5.80;;;4.40;;
10166;SDS011;62970;53.130;8.244;2023-02-28T00:50:24;6.80;;;4.27;;
10166;SDS011;62970;53.130;8.244;2023-02-28T00:52:54;5.03;;;4.10;;
10166;SDS011;62970;53.130;8.244;2023-02-28T00:55:24;5.13;;;4.37;;
10166;SDS011;62970;53.130;8.244;2023-02-28T00:57:56;4.67;;;4.07;;
10166;SDS011;62970;53.130;8.244;2023-02-28T01:00:25;6.30;;;4.33;;
10166;SDS011;62970;53.130;8.244;2023-02-28T01:02:55;5.67;;;4.27;;
10166;SDS011;62970;53.130;8.244;2023-02-28T01:05:24;7.93;;;4.50;;
10166;SDS011;62970;53.130;8.244;2023-02-28T01:07:53;4.70;;;4.20;;
10166;SDS011;62970;53.130;8.244;2023-02-28T01:10:23;5.40;;;4.20;;
10166;SDS011;62970;53.130;8.244;2023-02-28T01:12:59;4.77;;;4.23;;
10166;SDS011;62970;53.130;8.244;2023-02-28T01:15:28;4.47;;;3.97;;
10166;SDS011;62970;53.130;8.244;2023-02-28T01:17:57;5.73;;;3.97;;
10166;SDS011;62970;53.130;8.244;2023-02-28T01:20:29;6.60;;;4.30;;
10166;SDS011;62970;53.130;8.244;2023-02-28T01:22:58;4.93;;;4.27;;
10166;SDS011;62970;53.130;8.244;2023-02-28T01:25:27;4.30;;;3.90;;
10166;SDS011;62970;53.130;8.244;2023-02-28T01:28:00;4.17;;;3.77;;
10166;SDS011;62970;53.130;8.244;2023-02-28T01:30:30;5.57;;;4.43;;
10166;SDS011;62970;53.130;8.244;2023-02-28T01:33:00;4.80;;;4.30;;
10166;SDS011;62970;53.130;8.244;2023-02-28T01:35:31;4.20;;;3.60;;
10166;SDS011;62970;53.130;8.244;2023-02-28T01:38:02;4.77;;;3.53;;
10166;SDS011;62970;53.130;8.244;2023-02-28T01:40:31;4.30;;;3.90;;
10166;SDS011;62970;53.130;8.244;2023-02-28T01:43:04;6.87;;;4.13;;
10166;SDS011;62970;53.130;8.244;2023-02-28T01:45:46;6.43;;;4.07;;
10166;SDS011;62970;53.130;8.244;2023-02-28T01:48:16;4.40;;;4.00;;
10166;SDS011;62970;53.130;8.244;2023-02-28T01:50:47;4.30;;;3.90;;
10166;SDS011;62970;53.130;8.244;2023-02-28T01:53:18;4.23;;;3.80;;
10166;SDS011;62970;53.130;8.244;2023-02-28T01:55:54;6.47;;;4.20;;
10166;SDS011;62970;53.130;8.244;2023-02-28T01:58:26;4.20;;;3.50;;
10166;SDS011;62970;53.130;8.244;2023-02-28T02:00:55;5.00;;;4.13;;
10166;SDS011;62970;53.130;8.244;2023-02-28T02:03:24;7.13;;;4.63;;
10166;SDS011;62970;53.130;8.244;2023-02-28T02:05:54;5.93;;;4.43;;
10166;SDS011;62970;53.130;8.244;2023-02-28T02:08:23;6.20;;;4.40;;
10166;SDS011;62970;53.130;8.244;2023-02-28T02:10:57;4.37;;;3.77;;
10166;SDS011;62970;53.130;8.244;2023-02-28T02:13:41;5.30;;;4.10;;
10166;SDS011;62970;53.130;8.244;2023-02-28T02:16:34;5.23;;;4.00;;
10166;SDS011;62970;53.130;8.244;2023-02-28T02:19:16;4.40;;;3.70;;
10166;SDS011;62970;53.130;8.244;2023-02-28T02:22:20;4.23;;;3.40;;
10166;SDS011;62970;53.130;8.244;2023-02-28T02:25:25;4.70;;;4.23;;
10166;SDS011;62970;53.130;8.244;2023-02-28T02:31:35;5.60;;;4.30;;
10166;SDS011;62970;53.130;8.244;2023-02-28T02:34:38;4.50;;;3.67;;
10166;SDS011;62970;53.130;8.244;2023-02-28T02:37:19;4.63;;;3.50;;
10166;SDS011;62970;53.130;8.244;2023-02-28T02:39:59;5.07;;;3.90;;
10166;SDS011;62970;53.130;8.244;2023-02-28T02:42:39;4.83;;;3.50;;
10166;SDS011;62970;53.130;8.244;2023-02-28T02:45:17;5.07;;;3.67;;
10166;SDS011;62970;53.130;8.244;2023-02-28T02:47:53;5.93;;;3.90;;
10166;SDS011;62970;53.130;8.244;2023-02-28T02:50:30;5.17;;;3.30;;
10166;SDS011;62970;53.130;8.244;2023-02-28T02:53:05;4.20;;;3.73;;
10166;SDS011;62970;53.130;8.244;2023-02-28T02:55:38;4.90;;;3.90;;
10166;SDS011;62970;53.130;8.244;2023-02-28T02:58:13;5.73;;;3.70;;
10166;SDS011;62970;53.130;8.244;2023-02-28T03:00:48;5.77;;;3.53;;
10166;SDS011;62970;53.130;8.244;2023-02-28T03:03:21;3.93;;;3.53;;
10166;SDS011;62970;53.130;8.244;2023-02-28T03:05:56;4.60;;;3.83;;
10166;SDS011;62970;53.130;8.244;2023-02-28T03:08:35;4.47;;;3.70;;
10166;SDS011;62970;53.130;8.244;2023-02-28T03:11:06;4.47;;;3.87;;
10166;SDS011;62970;53.130;8.244;2023-02-28T03:13:52;4.73;;;4.20;;
10166;SDS011;62970;53.130;8.244;2023-02-28T03:16:35;4.97;;;4.03;;
10166;SDS011;62970;53.130;8.244;2023-02-28T03:19:26;4.53;;;3.97;;
10166;SDS011;62970;53.130;8.244;2023-02-28T03:22:27;4.53;;;3.70;;
10166;SDS011;62970;53.130;8.244;2023-02-28T03:25:17;4.33;;;3.43;;
10166;SDS011;62970;53.130;8.244;2023-02-28T03:28:00;4.33;;;3.80;;
10166;SDS011;62970;53.130;8.244;2023-02-28T03:30:39;4.13;;;3.73;;
10166;SDS011;62970;53.130;8.244;2023-02-28T03:33:20;4.50;;;3.87;;
10166;SDS011;62970;53.130;8.244;2023-02-28T03:35:55;5.60;;;3.80;;
10166;SDS011;62970;53.130;8.244;2023-02-28T03:38:35;5.57;;;4.53;;
10166;SDS011;62970;53.130;8.244;2023-02-28T03:41:10;6.37;;;4.87;;
10166;SDS011;62970;53.130;8.244;2023-02-28T03:43:48;5.63;;;4.00;;
10166;SDS011;62970;53.130;8.244;2023-02-28T03:46:22;6.07;;;4.40;;
10166;SDS011;62970;53.130;8.244;2023-02-28T03:48:57;5.73;;;4.47;;
10166;SDS011;62970;53.130;8.244;2023-02-28T03:51:32;4.93;;;4.20;;
10166;SDS011;62970;53.130;8.244;2023-02-28T03:54:07;5.87;;;4.30;;
10166;SDS011;62970;53.130;8.244;2023-02-28T03:56:42;5.00;;;4.40;;
10166;SDS011;62970;53.130;8.244;2023-02-28T03:59:18;5.87;;;4.30;;
10166;SDS011;62970;53.130;8.244;2023-02-28T04:01:54;5.83;;;4.70;;
10166;SDS011;62970;53.130;8.244;2023-02-28T04:04:25;6.70;;;5.40;;
10166;SDS011;62970;53.130;8.244;2023-02-28T04:07:00;5.93;;;5.40;;
10166;SDS011;62970;53.130;8.244;2023-02-28T04:09:34;7.63;;;5.43;;
10166;SDS011;62970;53.130;8.244;2023-02-28T04:12:04;6.13;;;5.30;;
10166;SDS011;62970;53.130;8.244;2023-02-28T04:14:34;7.20;;;5.87;;
10166;SDS011;62970;53.130;8.244;2023-02-28T04:17:04;6.60;;;5.63;;
10166;SDS011;62970;53.130;8.244;2023-02-28T04:19:33;6.60;;;5.40;;
10166;SDS011;62970;53.130;8.244;2023-02-28T04:22:02;7.23;;;5.50;;
10166;SDS011;62970;53.130;8.244;2023-02-28T04:24:31;7.73;;;5.63;;
10166;SDS011;62970;53.130;8.244;2023-02-28T04:27:06;6.83;;;5.60;;
10166;SDS011;62970;53.130;8.244;2023-02-28T04:29:37;7.33;;;5.57;;
10166;SDS011;62970;53.130;8.244;2023-02-28T04:32:09;6.23;;;5.43;;
10166;SDS011;62970;53.130;8.244;2023-02-28T04:34:41;5.87;;;5.27;;
10166;SDS011;62970;53.130;8.244;2023-02-28T04:37:10;6.97;;;5.90;;
10166;SDS011;62970;53.130;8.244;2023-02-28T04:39:42;6.27;;;5.53;;
10166;SDS011;62970;53.130;8.244;2023-02-28T04:42:12;7.40;;;6.60;;
10166;SDS011;62970;53.130;8.244;2023-02-28T04:44:41;7.40;;;6.10;;
10166;SDS011;62970;53.130;8.244;2023-02-28T04:47:12;8.43;;;5.93;;
10166;SDS011;62970;53.130;8.244;2023-02-28T04:49:41;7.90;;;6.10;;
10166;SDS011;62970;53.130;8.244;2023-02-28T04:52:10;7.53;;;6.07;;
10166;SDS011;62970;53.130;8.244;2023-02-28T04:54:42;6.77;;;6.07;;
10166;SDS011;62970;53.130;8.244;2023-02-28T04:57:12;7.10;;;6.40;;
10166;SDS011;62970;53.130;8.244;2023-02-28T04:59:41;6.17;;;5.57;;
10166;SDS011;62970;53.130;8.244;2023-02-28T05:02:10;6.47;;;5.83;;
10166;SDS011;62970;53.130;8.244;2023-02-28T05:04:39;7.77;;;6.00;;
10166;SDS011;62970;53.130;8.244;2023-02-28T05:07:08;6.83;;;5.70;;
10166;SDS011;62970;53.130;8.244;2023-02-28T05:09:37;6.60;;;5.63;;
10166;SDS011;62970;53.130;8.244;2023-02-28T05:12:09;8.37;;;6.00;;
10166;SDS011;62970;53.130;8.244;2023-02-28T05:14:39;6.83;;;6.13;;
10166;SDS011;62970;53.130;8.244;2023-02-28T05:17:09;6.50;;;5.80;;
10166;SDS011;62970;53.130;8.244;2023-02-28T05:19:38;7.97;;;6.10;;
10166;SDS011;62970;53.130;8.244;2023-02-28T05:22:12;6.33;;;5.67;;
10166;SDS011;62970;53.130;8.244;2023-02-28T05:24:43;7.37;;;6.13;;
10166;SDS011;62970;53.130;8.244;2023-02-28T05:27:15;8.00;;;5.80;;
10166;SDS011;62970;53.130;8.244;2023-02-28T05:29:44;8.07;;;5.77;;
10166;SDS011;62970;53.130;8.244;2023-02-28T05:32:13;6.80;;;5.73;;
10166;SDS011;62970;53.130;8.244;2023-02-28T05:34:43;6.53;;;5.60;;
10166;SDS011;62970;53.130;8.244;2023-02-28T05:37:13;6.40;;;5.73;;
10166;SDS011;62970;53.130;8.244;2023-02-28T05:39:43;6.97;;;5.30;;
10166;SDS011;62970;53.130;8.244;2023-02-28T05:42:15;6.20;;;5.47;;
10166;SDS011;62970;53.130;8.244;2023-02-28T05:44:45;6.13;;;5.30;;
10166;SDS011;62970;53.130;8.244;2023-02-28T05:47:14;8.80;;;5.50;;
10166;SDS011;62970;53.130;8.244;2023-02-28T05:49:44;6.13;;;5.50;;
10166;SDS011;62970;53.130;8.244;2023-02-28T05:52:13;6.37;;;5.20;;
10166;SDS011;62970;53.130;8.244;2023-02-28T05:54:42;8.43;;;5.80;;
10166;SDS011;62970;53.130;8.244;2023-02-28T05:57:12;6.90;;;5.37;;
10166;SDS011;62970;53.130;8.244;2023-02-28T05:59:44;6.20;;;5.47;;
10166;SDS011;62970;53.130;8.244;2023-02-28T06:02:14;6.67;;;5.10;;
10166;SDS011;62970;53.130;8.244;2023-02-28T06:04:45;7.70;;;5.93;;
10166;SDS011;62970;53.130;8.244;2023-02-28T06:07:14;6.87;;;5.40;;
10166;SDS011;62970;53.130;8.244;2023-02-28T06:09:44;6.00;;;5.40;;
10166;SDS011;62970;53.130;8.244;2023-02-28T06:12:13;7.87;;;6.50;;
10166;SDS011;62970;53.130;8.244;2023-02-28T06:14:45;10.20;;;7.07;;
10166;SDS011;62970;53.130;8.244;2023-02-28T06:17:14;10.27;;;6.70;;
10166;SDS011;62970;53.130;8.244;2023-02-28T06:19:44;8.47;;;6.33;;
10166;SDS011;62970;53.130;8.244;2023-02-28T06:22:13;9.03;;;6.60;;
10166;SDS011;62970;53.130;8.244;2023-02-28T06:24:42;8.50;;;7.17;;
10166;SDS011;62970;53.130;8.244;2023-02-28T06:27:12;9.00;;;7.37;;
10166;SDS011;62970;53.130;8.244;2023-02-28T06:29:41;11.63;;;8.13;;
10166;SDS011;62970;53.130;8.244;2023-02-28T06:32:13;8.87;;;7.40;;
10166;SDS011;62970;53.130;8.244;2023-02-28T06:34:42;8.73;;;7.20;;
10166;SDS011;62970;53.130;8.244;2023-02-28T06:37:11;7.07;;;6.00;;
10166;SDS011;62970;53.130;8.244;2023-02-28T06:39:41;6.73;;;6.03;;
10166;SDS011;62970;53.130;8.244;2023-02-28T06:42:11;7.63;;;5.80;;
10166;SDS011;62970;53.130;8.244;2023-02-28T06:44:40;6.93;;;5.37;;
10166;SDS011;62970;53.130;8.244;2023-02-28T06:47:12;8.83;;;5.93;;
10166;SDS011;62970;53.130;8.244;2023-02-28T06:49:41;10.43;;;6.20;;
10166;SDS011;62970;53.130;8.244;2023-02-28T06:52:11;8.17;;;5.77;;
10166;SDS011;62970;53.130;8.244;2023-02-28T06:54:40;10.50;;;5.77;;
10166;SDS011;62970;53.130;8.244;2023-02-28T06:57:09;6.73;;;5.17;;
10166;SDS011;62970;53.130;8.244;2023-02-28T06:59:39;7.07;;;5.57;;
10166;SDS011;62970;53.130;8.244;2023-02-28T07:02:08;7.03;;;5.33;;
10166;SDS011;62970;53.130;8.244;2023-02-28T07:04:40;8.10;;;6.07;;
10166;SDS011;62970;53.130;8.244;2023-02-28T07:07:09;6.80;;;5.73;;
10166;SDS011;62970;53.130;8.244;2023-02-28T07:09:39;10.97;;;6.33;;
10166;SDS011;62970;53.130;8.244;2023-02-28T07:12:08;8.50;;;5.97;;
10166;SDS011;62970;53.130;8.244;2023-02-28T07:14:40;10.50;;;6.23;;
10166;SDS011;62970;53.130;8.244;2023-02-28T07:17:14;7.17;;;5.50;;
10166;SDS011;62970;53.130;8.244;2023-02-28T07:19:44;6.53;;;5.20;;
10166;SDS011;62970;53.130;8.244;2023-02-28T07:22:14;6.93;;;5.10;;
10166;SDS011;62970;53.130;8.244;2023-02-28T07:24:44;7.97;;;5.10;;
10166;SDS011;62970;53.130;8.244;2023-02-28T07:27:15;6.07;;;5.00;;
10166;SDS011;62970;53.130;8.244;2023-02-28T07:29:48;5.10;;;4.60;;
10166;SDS011;62970;53.130;8.244;2023-02-28T07:32:20;5.80;;;4.33;;
10166;SDS011;62970;53.130;8.244;2023-02-28T07:34:50;5.60;;;4.00;;
10166;SDS011;62970;53.130;8.244;2023-02-28T07:37:20;4.53;;;3.93;;
10166;SDS011;62970;53.130;8.244;2023-02-28T07:39:56;4.90;;;4.03;;
10166;SDS011;62970;53.130;8.244;2023-02-28T07:42:26;5.57;;;4.10;;
10166;SDS011;62970;53.130;8.244;2023-02-28T07:44:55;4.30;;;3.90;;
10166;SDS011;62970;53.130;8.244;2023-02-28T07:47:28;7.00;;;4.23;;
10166;SDS011;62970;53.130;8.244;2023-02-28T07:50:00;5.50;;;4.33;;
10166;SDS011;62970;53.130;8.244;2023-02-28T07:52:30;4.23;;;3.83;;
10166;SDS011;62970;53.130;8.244;2023-02-28T19:52:18;3.50;;;2.93;;
10166;SDS011;62970;53.130;8.244;2023-02-28T19:54:47;6.47;;;4.37;;
10166;SDS011;62970;53.130;8.244;2023-02-28T19:57:19;6.23;;;5.30;;
10166;SDS011;62970;53.130;8.244;2023-02-28T19:59:49;8.50;;;6.73;;
10166;SDS011;62970;53.130;8.244;2023-02-28T20:02:19;9.57;;;6.70;;
10166;SDS011;62970;53.130;8.244;2023-02-28T20:04:50;10.87;;;8.00;;
10166;SDS011;62970;53.130;8.244;2023-02-28T20:07:24;11.67;;;8.93;;
10166;SDS011;62970;53.130;8.244;2023-02-28T20:09:54;12.93;;;9.80;;
10166;SDS011;62970;53.130;8.244;2023-02-28T20:12:24;12.60;;;9.60;;
10166;SDS011;62970;53.130;8.244;2023-02-28T20:14:53;14.63;;;10.60;;
10166;SDS011;62970;53.130;8.244;2023-02-28T20:17:24;11.70;;;9.57;;
10166;SDS011;62970;53.130;8.244;2023-02-28T20:19:54;12.47;;;10.37;;
10166;SDS011;62970;53.130;8.244;2023-02-28T20:22:28;14.87;;;10.50;;
10166;SDS011;62970;53.130;8.244;2023-02-28T20:24:58;11.93;;;10.27;;
10166;SDS011;62970;53.130;8.244;2023-02-28T20:27:27;13.60;;;11.07;;
10166;SDS011;62970;53.130;8.244;2023-02-28T20:30:00;17.27;;;12.30;;
10166;SDS011;62970;53.130;8.244;2023-02-28T20:32:33;15.00;;;12.27;;
10166;SDS011;62970;53.130;8.244;2023-02-28T20:35:04;13.40;;;10.97;;
10166;SDS011;62970;53.130;8.244;2023-02-28T20:37:38;14.23;;;11.43;;
10166;SDS011;62970;53.130;8.244;2023-02-28T20:40:09;14.67;;;10.57;;
10166;SDS011;62970;53.130;8.244;2023-02-28T20:42:40;14.07;;;10.53;;
10166;SDS011;62970;53.130;8.244;2023-02-28T20:45:10;13.23;;;9.97;;
10166;SDS011;62970;53.130;8.244;2023-02-28T20:47:39;11.70;;;9.63;;
10166;SDS011;62970;53.130;8.244;2023-02-28T20:50:09;11.63;;;9.03;;
10166;SDS011;62970;53.130;8.244;2023-02-28T20:52:44;12.57;;;8.47;;
10166;SDS011;62970;53.130;8.244;2023-02-28T20:55:13;12.13;;;9.13;;
10166;SDS011;62970;53.130;8.244;2023-02-28T20:57:42;10.97;;;8.17;;
10166;SDS011;62970;53.130;8.244;2023-02-28T21:00:14;9.87;;;8.87;;
10166;SDS011;62970;53.130;8.244;2023-02-28T21:02:44;13.43;;;8.93;;
10166;SDS011;62970;53.130;8.244;2023-02-28T21:05:13;10.60;;;7.90;;
10166;SDS011;62970;53.130;8.244;2023-02-28T21:07:45;13.23;;;8.70;;
10166;SDS011;62970;53.130;8.244;2023-02-28T21:10:16;9.80;;;8.80;;
10166;SDS011;62970;53.130;8.244;2023-02-28T21:12:48;11.03;;;9.57;;
10166;SDS011;62970;53.130;8.244;2023-02-28T21:15:22;11.60;;;9.00;;
10166;SDS011;62970;53.130;8.244;2023-02-28T21:17:51;10.13;;;8.27;;
10166;SDS011;62970;53.130;8.244;2023-02-28T21:20:21;10.37;;;8.13;;
10166;SDS011;62970;53.130;8.244;2023-02-28T21:22:52;9.23;;;8.20;;
10166;SDS011;62970;53.130;8.244;2023-02-28T21:25:22;10.13;;;8.17;;
10166;SDS011;62970;53.130;8.244;2023-02-28T21:27:51;10.50;;;7.87;;
10166;SDS011;62970;53.130;8.244;2023-02-28T21:30:21;10.63;;;7.73;;
10166;SDS011;62970;53.130;8.244;2023-02-28T21:32:51;10.43;;;7.77;;
10166;SDS011;62970;53.130;8.244;2023-02-28T21:35:21;9.40;;;7.87;;
10166;SDS011;62970;53.130;8.244;2023-02-28T21:37:53;11.40;;;8.93;;
10166;SDS011;62970;53.130;8.244;2023-02-28T21:40:22;10.70;;;8.57;;
10166;SDS011;62970;53.130;8.244;2023-02-28T21:42:51;10.30;;;8.53;;
10166;SDS011;62970;53.130;8.244;2023-02-28T21:45:20;9.70;;;8.63;;
10166;SDS011;62970;53.130;8.244;2023-02-28T21:47:51;11.10;;;8.80;;
10166;SDS011;62970;53.130;8.244;2023-02-28T21:50:20;10.00;;;8.83;;
10166;SDS011;62970;53.130;8.244;2023-02-28T21:52:50;9.83;;;8.83;;
10166;SDS011;62970;53.130;8.244;2023-02-28T21:55:21;12.27;;;9.37;;
10166;SDS011;62970;53.130;8.244;2023-02-28T21:57:51;10.37;;;8.40;;
10166;SDS011;62970;53.130;8.244;2023-02-28T22:00:20;10.37;;;8.90;;
10166;SDS011;62970;53.130;8.244;2023-02-28T22:02:50;10.77;;;8.97;;
10166;SDS011;62970;53.130;8.244;2023-02-28T22:05:19;9.93;;;8.30;;
10166;SDS011;62970;53.130;8.244;2023-02-28T22:07:48;10.77;;;8.87;;
10166;SDS011;62970;53.130;8.244;2023-02-28T22:10:17;10.37;;;9.20;;
10166;SDS011;62970;53.130;8.244;2023-02-28T22:12:49;11.30;;;9.33;;
10166;SDS011;62970;53.130;8.244;2023-02-28T22:15:20;9.73;;;8.60;;
10166;SDS011;62970;53.130;8.244;2023-02-28T22:17:49;13.73;;;8.63;;
10166;SDS011;62970;53.130;8.244;2023-02-28T22:20:18;9.73;;;7.93;;
10166;SDS011;62970;53.130;8.244;2023-02-28T22:22:48;10.37;;;9.03;;
10166;SDS011;62970;53.130;8.244;2023-02-28T22:25:17;11.30;;;9.00;;
10166;SDS011;62970;53.130;8.244;2023-02-28T22:27:46;10.70;;;9.13;;
10166;SDS011;62970;53.130;8.244;2023-02-28T22:30:19;11.53;;;10.00;;
10166;SDS011;62970;53.130;8.244;2023-02-28T22:32:48;11.53;;;10.00;;
10166;SDS011;62970;53.130;8.244;2023-02-28T22:35:18;13.27;;;10.27;;
10166;SDS011;62970;53.130;8.244;2023-02-28T22:37:47;14.50;;;11.30;;
10166;SDS011;62970;53.130;8.244;2023-02-28T22:40:17;16.17;;;11.70;;
10166;SDS011;62970;53.130;8.244;2023-02-28T22:42:46;14.73;;;11.37;;
10166;SDS011;62970;53.130;8.244;2023-02-28T22:45:18;18.03;;;13.03;;
10166;SDS011;62970;53.130;8.244;2023-02-28T22:47:47;17.13;;;12.83;;
10166;SDS011;62970;53.130;8.244;2023-02-28T22:50:16;17.53;;;13.83;;
10166;SDS011;62970;53.130;8.244;2023-02-28T22:52:46;16.40;;;12.90;;
10166;SDS011;62970;53.130;8.244;2023-02-28T22:55:16;17.27;;;13.00;;
10166;SDS011;62970;53.130;8.244;2023-02-28T22:57:45;16.80;;;13.43;;
10166;SDS011;62970;53.130;8.244;2023-02-28T23:00:17;19.20;;;14.53;;
10166;SDS011;62970;53.130;8.244;2023-02-28T23:02:48;18.17;;;14.17;;
10166;SDS011;62970;53.130;8.244;2023-02-28T23:05:17;19.33;;;14.17;;
10166;SDS011;62970;53.130;8.244;2023-02-28T23:07:47;18.80;;;13.50;;
10166;SDS011;62970;53.130;8.244;2023-02-28T23:10:16;18.50;;;14.47;;
10166;SDS011;62970;53.130;8.244;2023-02-28T23:12:46;18.57;;;13.77;;
10166;SDS011;62970;53.130;8.244;2023-02-28T23:15:21;16.57;;;12.70;;
10166;SDS011;62970;53.130;8.244;2023-02-28T23:17:51;17.63;;;13.70;;
10166;SDS011;62970;53.130;8.244;2023-02-28T23:20:20;15.40;;;13.07;;
10166;SDS011;62970;53.130;8.244;2023-02-28T23:22:49;17.83;;;13.77;;
10166;SDS011;62970;53.130;8.244;2023-02-28T23:25:19;16.67;;;13.57;;
10166;SDS011;62970;53.130;8.244;2023-02-28T23:27:49;17.10;;;13.23;;
10166;SDS011;62970;53.130;8.244;2023-02-28T23:30:23;16.13;;;13.43;;
10166;SDS011;62970;53.130;8.244;2023-02-28T23:32:53;18.90;;;13.60;;
10166;SDS011;62970;53.130;8.244;2023-02-28T23:35:22;19.03;;;13.90;;
10166;SDS011;62970;53.130;8.244;2023-02-28T23:37:52;17.63;;;13.30;;
10166;SDS011;62970;53.130;8.244;2023-02-28T23:40:24;17.87;;;13.23;;
10166;SDS011;62970;53.130;8.244;2023-02-28T23:42:53;15.70;;;12.90;;
10166;SDS011;62970;53.130;8.244;2023-02-28T23:45:26;16.20;;;12.90;;
10166;SDS011;62970;53.130;8.244;2023-02-28T23:47:55;17.13;;;12.43;;
10166;SDS011;62970;53.130;8.244;2023-02-28T23:50:25;15.43;;;12.43;;
10166;SDS011;62970;53.130;8.244;2023-02-28T23:52:55;15.83;;;12.30;;
10166;SDS011;62970;53.130;8.244;2023-02-28T23:55:24;16.77;;;12.40;;
10166;SDS011;62970;53.130;8.244;2023-02-28T23:57:53;16.93;;;12.60;;
